Terminal Aerodrome Forecast
Issued by NWS Charleston, WV

Current Version | Previous Version | Text Only | Print | Product List | Glossary Off
Versions: 1 2 3 4 5 6 7 8 9 10 11 12 13 14 15 16 17 18 19 20 21 22 23 24 25 26 27 28 29 30

000
FTUS41 KRLX 011725
TAFHTS
TAF
KHTS 011725Z 0118/0218 26007KT P6SM BKN025
     FM011900 30005KT P6SM SCT030
     FM020200 23004KT P6SM VCSH BKN060
     FM020600 00000KT 5SM BR BKN015
     FM021500 00000KT P6SM SCT025=

USA.gov is the U.S. government's official web portal to all federal, state and local government web resources and services.